sensor_id;sensor_type;location;lat;lon;timestamp;temperature;humidity
62904;DHT22;49000;50.698;13.322;2023-03-23T00:01:03;10.90;12.50
62904;DHT22;49000;50.698;13.322;2023-03-23T00:03:29;11.00;11.90
62904;DHT22;49000;50.698;13.322;2023-03-23T00:06:00;11.00;11.90
62904;DHT22;49000;50.698;13.322;2023-03-23T00:08:31;11.00;10.30
62904;DHT22;49000;50.698;13.322;2023-03-23T00:10:57;11.00;10.80
62904;DHT22;49000;50.698;13.322;2023-03-23T00:13:27;11.00;11.40
62904;DHT22;49000;50.698;13.322;2023-03-23T00:15:52;10.90;10.40
62904;DHT22;49000;50.698;13.322;2023-03-23T00:18:21;10.90;10.80
62904;DHT22;49000;50.698;13.322;2023-03-23T00:20:51;10.90;12.80
62904;DHT22;49000;50.698;13.322;2023-03-23T00:23:19;10.80;11.70
62904;DHT22;49000;50.698;13.322;2023-03-23T00:25:46;10.90;9.70
62904;DHT22;49000;50.698;13.322;2023-03-23T00:28:12;11.00;10.80
62904;DHT22;49000;50.698;13.322;2023-03-23T00:30:38;11.00;9.80
62904;DHT22;49000;50.698;13.322;2023-03-23T00:33:04;11.00;9.70
62904;DHT22;49000;50.698;13.322;2023-03-23T00:35:30;11.10;9.60
62904;DHT22;49000;50.698;13.322;2023-03-23T00:37:56;11.10;9.00
62904;DHT22;49000;50.698;13.322;2023-03-23T00:40:24;11.10;9.20
62904;DHT22;49000;50.698;13.322;2023-03-23T00:42:49;11.00;9.00
62904;DHT22;49000;50.698;13.322;2023-03-23T00:45:15;11.10;9.20
62904;DHT22;49000;50.698;13.322;2023-03-23T00:47:41;11.10;9.00
62904;DHT22;49000;50.698;13.322;2023-03-23T00:50:12;11.10;9.00
62904;DHT22;49000;50.698;13.322;2023-03-23T00:52:38;11.10;8.90
62904;DHT22;49000;50.698;13.322;2023-03-23T00:55:04;11.20;9.10
62904;DHT22;49000;50.698;13.322;2023-03-23T00:57:29;11.20;9.10
62904;DHT22;49000;50.698;13.322;2023-03-23T00:59:56;11.10;9.00
62904;DHT22;49000;50.698;13.322;2023-03-23T01:02:21;11.10;8.40
62904;DHT22;49000;50.698;13.322;2023-03-23T01:04:50;11.20;8.90
62904;DHT22;49000;50.698;13.322;2023-03-23T01:07:20;11.10;7.90
62904;DHT22;49000;50.698;13.322;2023-03-23T01:09:48;11.10;6.90
62904;DHT22;49000;50.698;13.322;2023-03-23T01:12:14;11.20;7.40
62904;DHT22;49000;50.698;13.322;2023-03-23T01:14:40;11.20;6.70
62904;DHT22;49000;50.698;13.322;2023-03-23T01:17:06;11.20;6.20
62904;DHT22;49000;50.698;13.322;2023-03-23T01:19:31;11.30;5.80
62904;DHT22;49000;50.698;13.322;2023-03-23T01:21:57;11.30;5.30
62904;DHT22;49000;50.698;13.322;2023-03-23T01:24:22;11.30;6.10
62904;DHT22;49000;50.698;13.322;2023-03-23T01:26:48;11.30;6.30
62904;DHT22;49000;50.698;13.322;2023-03-23T01:29:13;11.20;6.50
62904;DHT22;49000;50.698;13.322;2023-03-23T01:31:39;11.20;6.30
62904;DHT22;49000;50.698;13.322;2023-03-23T01:34:05;11.20;6.20
62904;DHT22;49000;50.698;13.322;2023-03-23T01:36:31;11.10;5.80
62904;DHT22;49000;50.698;13.322;2023-03-23T01:38:58;11.10;6.30
62904;DHT22;49000;50.698;13.322;2023-03-23T01:41:26;11.10;6.10
62904;DHT22;49000;50.698;13.322;2023-03-23T01:46:28;11.10;6.40
62904;DHT22;49000;50.698;13.322;2023-03-23T01:48:56;11.10;6.40
62904;DHT22;49000;50.698;13.322;2023-03-23T01:51:24;11.00;8.90
62904;DHT22;49000;50.698;13.322;2023-03-23T01:53:56;11.00;8.90
62904;DHT22;49000;50.698;13.322;2023-03-23T01:56:24;10.90;10.10
62904;DHT22;49000;50.698;13.322;2023-03-23T01:58:52;10.90;7.40
62904;DHT22;49000;50.698;13.322;2023-03-23T02:01:19;11.00;7.00
62904;DHT22;49000;50.698;13.322;2023-03-23T02:03:46;11.00;6.30
62904;DHT22;49000;50.698;13.322;2023-03-23T02:06:13;11.10;7.10
62904;DHT22;49000;50.698;13.322;2023-03-23T02:08:40;11.00;7.40
62904;DHT22;49000;50.698;13.322;2023-03-23T02:11:13;11.00;7.80
62904;DHT22;49000;50.698;13.322;2023-03-23T02:13:39;11.00;7.20
62904;DHT22;49000;50.698;13.322;2023-03-23T02:16:15;11.10;6.40
62904;DHT22;49000;50.698;13.322;2023-03-23T02:22:30;11.30;6.80
62904;DHT22;49000;50.698;13.322;2023-03-23T02:27:48;11.50;6.90
62904;DHT22;49000;50.698;13.322;2023-03-23T02:35:53;11.40;7.30
62904;DHT22;49000;50.698;13.322;2023-03-23T02:38:31;11.40;7.50
62904;DHT22;49000;50.698;13.322;2023-03-23T02:41:00;11.30;7.60
62904;DHT22;49000;50.698;13.322;2023-03-23T02:43:31;11.30;7.70
62904;DHT22;49000;50.698;13.322;2023-03-23T02:45:58;11.40;6.40
62904;DHT22;49000;50.698;13.322;2023-03-23T02:48:27;11.50;7.10
62904;DHT22;49000;50.698;13.322;2023-03-23T02:50:53;11.50;7.10
62904;DHT22;49000;50.698;13.322;2023-03-23T02:53:23;11.40;7.20
62904;DHT22;49000;50.698;13.322;2023-03-23T02:55:50;11.50;6.10
62904;DHT22;49000;50.698;13.322;2023-03-23T02:58:18;11.50;5.30
62904;DHT22;49000;50.698;13.322;2023-03-23T03:00:44;11.40;6.70
62904;DHT22;49000;50.698;13.322;2023-03-23T03:03:13;11.40;6.80
62904;DHT22;49000;50.698;13.322;2023-03-23T03:06:05;11.40;6.60
62904;DHT22;49000;50.698;13.322;2023-03-23T03:09:02;11.30;8.80
62904;DHT22;49000;50.698;13.322;2023-03-23T03:11:31;11.20;11.20
62904;DHT22;49000;50.698;13.322;2023-03-23T03:14:10;11.10;9.10
62904;DHT22;49000;50.698;13.322;2023-03-23T03:17:03;11.10;10.10
62904;DHT22;49000;50.698;13.322;2023-03-23T03:19:35;11.00;12.30
62904;DHT22;49000;50.698;13.322;2023-03-23T03:22:03;11.00;13.90
62904;DHT22;49000;50.698;13.322;2023-03-23T03:24:31;10.90;13.90
62904;DHT22;49000;50.698;13.322;2023-03-23T03:26:59;10.80;14.60
62904;DHT22;49000;50.698;13.322;2023-03-23T03:29:34;10.70;15.50
62904;DHT22;49000;50.698;13.322;2023-03-23T03:32:03;10.60;17.20
62904;DHT22;49000;50.698;13.322;2023-03-23T03:34:30;10.60;16.80
62904;DHT22;49000;50.698;13.322;2023-03-23T03:36:58;10.50;18.20
62904;DHT22;49000;50.698;13.322;2023-03-23T03:39:24;10.50;18.20
62904;DHT22;49000;50.698;13.322;2023-03-23T03:41:50;10.40;18.90
62904;DHT22;49000;50.698;13.322;2023-03-23T03:44:15;10.40;19.90
62904;DHT22;49000;50.698;13.322;2023-03-23T03:46:41;10.40;19.60
62904;DHT22;49000;50.698;13.322;2023-03-23T03:49:08;10.30;17.30
62904;DHT22;49000;50.698;13.322;2023-03-23T03:51:34;10.40;19.10
62904;DHT22;49000;50.698;13.322;2023-03-23T03:54:01;10.30;20.20
62904;DHT22;49000;50.698;13.322;2023-03-23T03:56:27;10.30;21.90
62904;DHT22;49000;50.698;13.322;2023-03-23T03:58:53;10.30;19.40
62904;DHT22;49000;50.698;13.322;2023-03-23T04:01:21;10.30;19.70
62904;DHT22;49000;50.698;13.322;2023-03-23T04:03:48;10.30;20.00
62904;DHT22;49000;50.698;13.322;2023-03-23T04:06:13;10.30;19.40
62904;DHT22;49000;50.698;13.322;2023-03-23T04:08:40;10.30;20.90
62904;DHT22;49000;50.698;13.322;2023-03-23T04:11:07;10.30;18.40
62904;DHT22;49000;50.698;13.322;2023-03-23T04:13:34;10.40;13.30
62904;DHT22;49000;50.698;13.322;2023-03-23T04:15:59;10.70;12.00
62904;DHT22;49000;50.698;13.322;2023-03-23T04:18:25;10.90;10.00
62904;DHT22;49000;50.698;13.322;2023-03-23T04:20:51;10.90;10.50
62904;DHT22;49000;50.698;13.322;2023-03-23T04:23:18;10.90;10.20
62904;DHT22;49000;50.698;13.322;2023-03-23T04:25:49;11.00;10.90
62904;DHT22;49000;50.698;13.322;2023-03-23T04:28:16;11.00;10.90
62904;DHT22;49000;50.698;13.322;2023-03-23T04:30:45;11.00;10.00
62904;DHT22;49000;50.698;13.322;2023-03-23T04:33:12;11.00;11.40
62904;DHT22;49000;50.698;13.322;2023-03-23T04:35:42;11.00;10.30
62904;DHT22;49000;50.698;13.322;2023-03-23T04:38:14;11.00;9.90
62904;DHT22;49000;50.698;13.322;2023-03-23T04:40:43;11.10;10.20
62904;DHT22;49000;50.698;13.322;2023-03-23T04:43:09;11.10;11.30
62904;DHT22;49000;50.698;13.322;2023-03-23T04:45:38;11.00;11.40
62904;DHT22;49000;50.698;13.322;2023-03-23T04:48:07;11.10;10.80
62904;DHT22;49000;50.698;13.322;2023-03-23T04:50:32;11.10;10.40
62904;DHT22;49000;50.698;13.322;2023-03-23T04:53:00;11.20;10.10
62904;DHT22;49000;50.698;13.322;2023-03-23T04:55:30;11.20;10.30
62904;DHT22;49000;50.698;13.322;2023-03-23T04:57:57;11.20;9.90
62904;DHT22;49000;50.698;13.322;2023-03-23T05:00:25;11.10;9.40
62904;DHT22;49000;50.698;13.322;2023-03-23T05:02:51;11.10;10.10
62904;DHT22;49000;50.698;13.322;2023-03-23T05:05:17;11.10;9.20
62904;DHT22;49000;50.698;13.322;2023-03-23T05:07:43;11.10;10.20
62904;DHT22;49000;50.698;13.322;2023-03-23T05:10:11;11.10;10.50
62904;DHT22;49000;50.698;13.322;2023-03-23T05:12:37;11.10;10.30
62904;DHT22;49000;50.698;13.322;2023-03-23T05:15:03;11.00;10.80
62904;DHT22;49000;50.698;13.322;2023-03-23T05:17:29;11.00;10.80
62904;DHT22;49000;50.698;13.322;2023-03-23T05:19:55;11.10;9.00
62904;DHT22;49000;50.698;13.322;2023-03-23T05:22:22;11.10;9.30
62904;DHT22;49000;50.698;13.322;2023-03-23T05:24:48;11.10;9.00
62904;DHT22;49000;50.698;13.322;2023-03-23T05:27:13;11.10;9.70
62904;DHT22;49000;50.698;13.322;2023-03-23T05:29:40;11.20;9.10
62904;DHT22;49000;50.698;13.322;2023-03-23T05:32:07;11.20;9.10
62904;DHT22;49000;50.698;13.322;2023-03-23T05:34:34;11.20;9.10
62904;DHT22;49000;50.698;13.322;2023-03-23T05:37:01;11.30;8.30
62904;DHT22;49000;50.698;13.322;2023-03-23T05:39:28;11.20;8.40
62904;DHT22;49000;50.698;13.322;2023-03-23T05:41:54;11.20;9.10
62904;DHT22;49000;50.698;13.322;2023-03-23T05:44:20;11.30;7.80
62904;DHT22;49000;50.698;13.322;2023-03-23T05:46:46;11.30;7.50
62904;DHT22;49000;50.698;13.322;2023-03-23T05:49:12;11.40;8.00
62904;DHT22;49000;50.698;13.322;2023-03-23T05:51:37;11.40;8.00
62904;DHT22;49000;50.698;13.322;2023-03-23T05:54:03;11.30;7.80
62904;DHT22;49000;50.698;13.322;2023-03-23T05:56:29;11.30;6.90
62904;DHT22;49000;50.698;13.322;2023-03-23T05:58:56;11.40;6.90
62904;DHT22;49000;50.698;13.322;2023-03-23T06:01:22;11.40;7.60
62904;DHT22;49000;50.698;13.322;2023-03-23T06:03:48;11.40;7.70
62904;DHT22;49000;50.698;13.322;2023-03-23T06:06:16;11.40;8.70
62904;DHT22;49000;50.698;13.322;2023-03-23T06:08:42;11.30;8.80
62904;DHT22;49000;50.698;13.322;2023-03-23T06:11:08;11.40;8.30
62904;DHT22;49000;50.698;13.322;2023-03-23T06:13:33;11.50;8.80
62904;DHT22;49000;50.698;13.322;2023-03-23T06:15:59;11.50;8.30
62904;DHT22;49000;50.698;13.322;2023-03-23T06:18:24;11.60;8.90
62904;DHT22;49000;50.698;13.322;2023-03-23T06:20:50;11.80;7.30
62904;DHT22;49000;50.698;13.322;2023-03-23T06:23:16;11.80;6.60
62904;DHT22;49000;50.698;13.322;2023-03-23T06:25:43;11.90;7.90
62904;DHT22;49000;50.698;13.322;2023-03-23T06:28:09;12.00;6.40
62904;DHT22;49000;50.698;13.322;2023-03-23T06:30:35;12.00;7.50
62904;DHT22;49000;50.698;13.322;2023-03-23T06:33:01;12.00;6.80
62904;DHT22;49000;50.698;13.322;2023-03-23T06:35:31;12.00;6.20
62904;DHT22;49000;50.698;13.322;2023-03-23T06:37:56;12.00;6.90
62904;DHT22;49000;50.698;13.322;2023-03-23T06:40:23;12.00;7.40
62904;DHT22;49000;50.698;13.322;2023-03-23T06:42:49;12.10;6.20
62904;DHT22;49000;50.698;13.322;2023-03-23T06:45:14;12.10;6.90
62904;DHT22;49000;50.698;13.322;2023-03-23T06:47:39;12.10;6.90
62904;DHT22;49000;50.698;13.322;2023-03-23T06:50:06;12.10;6.70
62904;DHT22;49000;50.698;13.322;2023-03-23T06:52:32;12.10;6.40
62904;DHT22;49000;50.698;13.322;2023-03-23T06:54:58;12.20;6.50
62904;DHT22;49000;50.698;13.322;2023-03-23T06:57:23;12.20;6.40
62904;DHT22;49000;50.698;13.322;2023-03-23T06:59:49;12.30;6.30
62904;DHT22;49000;50.698;13.322;2023-03-23T07:02:15;12.40;5.30
62904;DHT22;49000;50.698;13.322;2023-03-23T07:04:40;12.50;5.20
62904;DHT22;49000;50.698;13.322;2023-03-23T07:07:08;12.60;4.70
62904;DHT22;49000;50.698;13.322;2023-03-23T07:09:34;12.80;5.50
62904;DHT22;49000;50.698;13.322;2023-03-23T07:11:59;12.90;4.80
62904;DHT22;49000;50.698;13.322;2023-03-23T07:14:25;12.90;4.40
62904;DHT22;49000;50.698;13.322;2023-03-23T07:16:50;12.90;5.40
62904;DHT22;49000;50.698;13.322;2023-03-23T07:19:16;13.00;4.80
62904;DHT22;49000;50.698;13.322;2023-03-23T07:21:42;13.00;4.50
62904;DHT22;49000;50.698;13.322;2023-03-23T07:24:11;13.10;3.10
62904;DHT22;49000;50.698;13.322;2023-03-23T07:26:39;13.10;4.20
62904;DHT22;49000;50.698;13.322;2023-03-23T07:29:05;13.10;3.10
62904;DHT22;49000;50.698;13.322;2023-03-23T07:31:32;13.00;5.00
62904;DHT22;49000;50.698;13.322;2023-03-23T07:33:57;12.90;3.20
62904;DHT22;49000;50.698;13.322;2023-03-23T07:36:23;12.90;4.80
62904;DHT22;49000;50.698;13.322;2023-03-23T07:38:48;12.90;4.90
62904;DHT22;49000;50.698;13.322;2023-03-23T07:41:14;12.90;4.90
62904;DHT22;49000;50.698;13.322;2023-03-23T07:43:39;13.00;5.80
62904;DHT22;49000;50.698;13.322;2023-03-23T07:46:06;13.00;4.70
62904;DHT22;49000;50.698;13.322;2023-03-23T07:48:32;13.10;4.60
62904;DHT22;49000;50.698;13.322;2023-03-23T07:50:58;13.00;3.80
62904;DHT22;49000;50.698;13.322;2023-03-23T07:53:24;13.00;5.40
62904;DHT22;49000;50.698;13.322;2023-03-23T07:55:50;13.00;4.20
62904;DHT22;49000;50.698;13.322;2023-03-23T07:58:15;13.00;5.10
62904;DHT22;49000;50.698;13.322;2023-03-23T08:00:45;13.00;5.10
62904;DHT22;49000;50.698;13.322;2023-03-23T08:03:11;13.00;5.80
62904;DHT22;49000;50.698;13.322;2023-03-23T08:05:37;13.00;5.30
62904;DHT22;49000;50.698;13.322;2023-03-23T08:08:03;13.10;6.50
62904;DHT22;49000;50.698;13.322;2023-03-23T08:10:29;13.10;5.10
62904;DHT22;49000;50.698;13.322;2023-03-23T08:12:56;13.20;5.70
62904;DHT22;49000;50.698;13.322;2023-03-23T08:15:22;13.20;4.80
62904;DHT22;49000;50.698;13.322;2023-03-23T08:17:49;13.30;6.40
62904;DHT22;49000;50.698;13.322;2023-03-23T08:20:15;13.30;4.80
62904;DHT22;49000;50.698;13.322;2023-03-23T08:22:45;13.30;5.30
62904;DHT22;49000;50.698;13.322;2023-03-23T08:25:13;13.40;4.50
62904;DHT22;49000;50.698;13.322;2023-03-23T08:27:39;13.50;5.80
62904;DHT22;49000;50.698;13.322;2023-03-23T08:30:13;13.60;4.50
62904;DHT22;49000;50.698;13.322;2023-03-23T08:32:39;13.60;4.30
62904;DHT22;49000;50.698;13.322;2023-03-23T08:35:06;13.70;4.00
62904;DHT22;49000;50.698;13.322;2023-03-23T08:37:32;13.60;4.90
62904;DHT22;49000;50.698;13.322;2023-03-23T08:39:57;13.60;4.90
62904;DHT22;49000;50.698;13.322;2023-03-23T08:42:24;13.70;4.80
62904;DHT22;49000;50.698;13.322;2023-03-23T08:44:50;13.70;4.30
62904;DHT22;49000;50.698;13.322;2023-03-23T08:47:15;13.60;5.80
62904;DHT22;49000;50.698;13.322;2023-03-23T08:49:41;13.60;5.80
62904;DHT22;49000;50.698;13.322;2023-03-23T08:52:08;13.50;5.50
62904;DHT22;49000;50.698;13.322;2023-03-23T08:54:34;13.50;6.40
62904;DHT22;49000;50.698;13.322;2023-03-23T08:57:01;13.40;5.60
62904;DHT22;49000;50.698;13.322;2023-03-23T08:59:27;13.40;6.40
62904;DHT22;49000;50.698;13.322;2023-03-23T09:01:53;13.40;6.50
62904;DHT22;49000;50.698;13.322;2023-03-23T09:04:19;13.40;6.20
62904;DHT22;49000;50.698;13.322;2023-03-23T09:06:46;13.50;6.80
62904;DHT22;49000;50.698;13.322;2023-03-23T09:09:12;13.60;6.90
62904;DHT22;49000;50.698;13.322;2023-03-23T09:11:38;13.60;6.30
62904;DHT22;49000;50.698;13.322;2023-03-23T09:14:05;13.60;6.60
62904;DHT22;49000;50.698;13.322;2023-03-23T09:16:31;13.60;7.50
62904;DHT22;49000;50.698;13.322;2023-03-23T09:18:58;13.50;7.70
62904;DHT22;49000;50.698;13.322;2023-03-23T09:21:25;13.40;8.30
62904;DHT22;49000;50.698;13.322;2023-03-23T09:23:51;13.40;9.10
62904;DHT22;49000;50.698;13.322;2023-03-23T09:26:17;13.40;9.90
62904;DHT22;49000;50.698;13.322;2023-03-23T09:28:43;13.30;10.20
62904;DHT22;49000;50.698;13.322;2023-03-23T09:31:09;13.20;12.40
62904;DHT22;49000;50.698;13.322;2023-03-23T09:33:36;13.20;13.20
62904;DHT22;49000;50.698;13.322;2023-03-23T09:36:02;13.10;16.00
62904;DHT22;49000;50.698;13.322;2023-03-23T09:38:28;13.00;16.00
62904;DHT22;49000;50.698;13.322;2023-03-23T09:49:15;13.00;19.10
62904;DHT22;49000;50.698;13.322;2023-03-23T09:51:55;13.00;19.80
62904;DHT22;49000;50.698;13.322;2023-03-23T09:54:28;13.10;21.30
62904;DHT22;49000;50.698;13.322;2023-03-23T09:56:57;13.10;19.90
62904;DHT22;49000;50.698;13.322;2023-03-23T10:02:17;13.20;20.10
62904;DHT22;49000;50.698;13.322;2023-03-23T10:04:51;13.20;19.90
62904;DHT22;49000;50.698;13.322;2023-03-23T10:07:26;13.30;18.70
62904;DHT22;49000;50.698;13.322;2023-03-23T10:09:54;13.20;18.00
62904;DHT22;49000;50.698;13.322;2023-03-23T10:12:36;13.20;16.90
62904;DHT22;49000;50.698;13.322;2023-03-23T10:15:19;13.10;19.70
62904;DHT22;49000;50.698;13.322;2023-03-23T10:17:48;13.20;19.50
62904;DHT22;49000;50.698;13.322;2023-03-23T10:25:40;13.10;17.80
62904;DHT22;49000;50.698;13.322;2023-03-23T10:28:19;13.20;18.00
62904;DHT22;49000;50.698;13.322;2023-03-23T10:30:52;13.20;19.20
62904;DHT22;49000;50.698;13.322;2023-03-23T10:33:43;13.10;18.00
62904;DHT22;49000;50.698;13.322;2023-03-23T10:36:18;13.10;18.40
62904;DHT22;49000;50.698;13.322;2023-03-23T10:41:34;12.90;18.10
62904;DHT22;49000;50.698;13.322;2023-03-23T10:44:00;12.90;18.70
62904;DHT22;49000;50.698;13.322;2023-03-23T10:46:40;12.90;19.40
62904;DHT22;49000;50.698;13.322;2023-03-23T10:49:15;13.00;19.50
62904;DHT22;49000;50.698;13.322;2023-03-23T10:51:47;13.00;18.00
62904;DHT22;49000;50.698;13.322;2023-03-23T10:54:26;13.00;17.10
62904;DHT22;49000;50.698;13.322;2023-03-23T10:56:52;13.00;17.60
62904;DHT22;49000;50.698;13.322;2023-03-23T10:59:27;12.90;16.80
62904;DHT22;49000;50.698;13.322;2023-03-23T11:01:55;12.90;16.70
62904;DHT22;49000;50.698;13.322;2023-03-23T11:04:22;12.90;17.50
62904;DHT22;49000;50.698;13.322;2023-03-23T11:06:51;12.90;16.40
62904;DHT22;49000;50.698;13.322;2023-03-23T11:09:19;12.90;16.80
62904;DHT22;49000;50.698;13.322;2023-03-23T11:11:50;12.90;17.30
62904;DHT22;49000;50.698;13.322;2023-03-23T11:14:25;12.90;17.40
62904;DHT22;49000;50.698;13.322;2023-03-23T11:16:54;12.90;18.00
62904;DHT22;49000;50.698;13.322;2023-03-23T11:19:23;12.90;17.40
62904;DHT22;49000;50.698;13.322;2023-03-23T11:21:56;12.90;16.60
62904;DHT22;49000;50.698;13.322;2023-03-23T11:24:28;12.90;18.20
62904;DHT22;49000;50.698;13.322;2023-03-23T11:26:55;12.80;17.80
62904;DHT22;49000;50.698;13.322;2023-03-23T11:29:24;12.80;17.90
62904;DHT22;49000;50.698;13.322;2023-03-23T11:31:53;12.80;18.20
62904;DHT22;49000;50.698;13.322;2023-03-23T11:34:25;12.70;17.90
62904;DHT22;49000;50.698;13.322;2023-03-23T11:36:58;12.70;17.80
62904;DHT22;49000;50.698;13.322;2023-03-23T11:39:28;12.60;18.30
62904;DHT22;49000;50.698;13.322;2023-03-23T11:41:55;12.60;18.40
62904;DHT22;49000;50.698;13.322;2023-03-23T11:44:23;12.50;18.40
62904;DHT22;49000;50.698;13.322;2023-03-23T11:47:03;12.50;19.10
62904;DHT22;49000;50.698;13.322;2023-03-23T11:49:55;12.50;18.10
62904;DHT22;49000;50.698;13.322;2023-03-23T11:52:33;12.50;19.00
62904;DHT22;49000;50.698;13.322;2023-03-23T11:55:25;12.50;18.80
62904;DHT22;49000;50.698;13.322;2023-03-23T11:57:52;12.50;18.40
62904;DHT22;49000;50.698;13.322;2023-03-23T12:00:21;12.60;18.10
62904;DHT22;49000;50.698;13.322;2023-03-23T12:08:21;12.70;18.80
62904;DHT22;49000;50.698;13.322;2023-03-23T12:10:56;12.70;18.70
62904;DHT22;49000;50.698;13.322;2023-03-23T12:13:44;12.70;18.70
62904;DHT22;49000;50.698;13.322;2023-03-23T12:19:16;12.70;18.10
62904;DHT22;49000;50.698;13.322;2023-03-23T12:30:21;12.70;18.20
62904;DHT22;49000;50.698;13.322;2023-03-23T12:33:28;12.70;17.20
62904;DHT22;49000;50.698;13.322;2023-03-23T12:38:35;13.10;17.20
62904;DHT22;49000;50.698;13.322;2023-03-23T12:41:26;13.30;17.80
62904;DHT22;49000;50.698;13.322;2023-03-23T12:43:59;13.50;14.30
62904;DHT22;49000;50.698;13.322;2023-03-23T12:49:37;13.30;15.90
62904;DHT22;49000;50.698;13.322;2023-03-23T12:52:17;13.20;17.10
62904;DHT22;49000;50.698;13.322;2023-03-23T12:54:58;13.20;16.20
62904;DHT22;49000;50.698;13.322;2023-03-23T13:00:18;13.10;16.50
62904;DHT22;49000;50.698;13.322;2023-03-23T13:07:57;13.00;15.40
62904;DHT22;49000;50.698;13.322;2023-03-23T13:10:29;13.10;15.70
62904;DHT22;49000;50.698;13.322;2023-03-23T13:12:57;13.10;16.00
62904;DHT22;49000;50.698;13.322;2023-03-23T13:15:41;13.20;14.20
62904;DHT22;49000;50.698;13.322;2023-03-23T13:21:06;13.30;14.30
62904;DHT22;49000;50.698;13.322;2023-03-23T13:23:37;13.30;14.70
62904;DHT22;49000;50.698;13.322;2023-03-23T13:26:09;13.50;14.40
62904;DHT22;49000;50.698;13.322;2023-03-23T13:31:24;13.60;12.30
62904;DHT22;49000;50.698;13.322;2023-03-23T13:36:40;13.40;13.70
62904;DHT22;49000;50.698;13.322;2023-03-23T13:39:18;13.30;13.30
62904;DHT22;49000;50.698;13.322;2023-03-23T13:41:58;13.20;13.90
62904;DHT22;49000;50.698;13.322;2023-03-23T13:44:25;13.30;13.80
62904;DHT22;49000;50.698;13.322;2023-03-23T13:46:57;13.30;14.10
62904;DHT22;49000;50.698;13.322;2023-03-23T13:49:32;13.20;13.60
62904;DHT22;49000;50.698;13.322;2023-03-23T13:52:14;13.30;14.60
62904;DHT22;49000;50.698;13.322;2023-03-23T13:54:43;13.30;15.40
62904;DHT22;49000;50.698;13.322;2023-03-23T13:57:25;13.30;15.00
62904;DHT22;49000;50.698;13.322;2023-03-23T13:59:59;13.30;15.70
62904;DHT22;49000;50.698;13.322;2023-03-23T14:02:37;13.30;14.70
62904;DHT22;49000;50.698;13.322;2023-03-23T14:05:28;13.30;14.60
62904;DHT22;49000;50.698;13.322;2023-03-23T14:07:56;13.30;13.30
62904;DHT22;49000;50.698;13.322;2023-03-23T14:10:31;13.30;15.60
62904;DHT22;49000;50.698;13.322;2023-03-23T14:12:59;13.40;15.00
62904;DHT22;49000;50.698;13.322;2023-03-23T14:15:29;13.40;14.60
62904;DHT22;49000;50.698;13.322;2023-03-23T14:17:55;13.40;15.10
62904;DHT22;49000;50.698;13.322;2023-03-23T14:20:31;13.50;14.90
62904;DHT22;49000;50.698;13.322;2023-03-23T14:22:58;13.50;14.70
62904;DHT22;49000;50.698;13.322;2023-03-23T14:25:29;13.50;14.90
62904;DHT22;49000;50.698;13.322;2023-03-23T14:27:56;13.50;13.40
62904;DHT22;49000;50.698;13.322;2023-03-23T14:30:24;13.60;14.10
62904;DHT22;49000;50.698;13.322;2023-03-23T14:32:51;13.60;14.50
62904;DHT22;49000;50.698;13.322;2023-03-23T14:35:30;13.70;14.40
62904;DHT22;49000;50.698;13.322;2023-03-23T14:37:57;13.80;14.50
62904;DHT22;49000;50.698;13.322;2023-03-23T14:40:26;13.80;14.40
62904;DHT22;49000;50.698;13.322;2023-03-23T14:42:52;13.80;13.90
62904;DHT22;49000;50.698;13.322;2023-03-23T14:45:20;13.70;12.70
62904;DHT22;49000;50.698;13.322;2023-03-23T14:47:50;13.80;13.90
62904;DHT22;49000;50.698;13.322;2023-03-23T14:52:49;13.60;13.20
62904;DHT22;49000;50.698;13.322;2023-03-23T14:55:21;13.50;14.10
62904;DHT22;49000;50.698;13.322;2023-03-23T14:57:48;13.50;14.80
62904;DHT22;49000;50.698;13.322;2023-03-23T15:00:26;13.50;14.30
62904;DHT22;49000;50.698;13.322;2023-03-23T15:02:56;13.50;13.60
62904;DHT22;49000;50.698;13.322;2023-03-23T15:05:31;13.50;14.50
62904;DHT22;49000;50.698;13.322;2023-03-23T15:08:30;13.50;13.70
62904;DHT22;49000;50.698;13.322;2023-03-23T15:11:12;13.40;14.50
62904;DHT22;49000;50.698;13.322;2023-03-23T15:13:43;13.40;14.80
62904;DHT22;49000;50.698;13.322;2023-03-23T15:16:21;13.30;14.30
62904;DHT22;49000;50.698;13.322;2023-03-23T15:19:03;13.30;13.80
62904;DHT22;49000;50.698;13.322;2023-03-23T15:21:35;13.40;14.50
62904;DHT22;49000;50.698;13.322;2023-03-23T15:24:02;13.40;14.60
62904;DHT22;49000;50.698;13.322;2023-03-23T15:26:33;13.40;12.90
62904;DHT22;49000;50.698;13.322;2023-03-23T15:31:32;13.40;13.80
62904;DHT22;49000;50.698;13.322;2023-03-23T15:34:03;13.30;14.10
62904;DHT22;49000;50.698;13.322;2023-03-23T15:36:33;13.30;12.90
62904;DHT22;49000;50.698;13.322;2023-03-23T15:38:59;13.20;14.00
62904;DHT22;49000;50.698;13.322;2023-03-23T15:41:31;13.20;13.40
62904;DHT22;49000;50.698;13.322;2023-03-23T15:44:10;13.10;14.50
62904;DHT22;49000;50.698;13.322;2023-03-23T15:46:36;13.10;14.30
62904;DHT22;49000;50.698;13.322;2023-03-23T15:49:12;13.00;14.20
62904;DHT22;49000;50.698;13.322;2023-03-23T15:51:39;13.00;14.20
62904;DHT22;49000;50.698;13.322;2023-03-23T15:54:11;12.90;14.30
62904;DHT22;49000;50.698;13.322;2023-03-23T15:56:37;12.90;14.80
62904;DHT22;49000;50.698;13.322;2023-03-23T15:59:03;12.80;14.40
62904;DHT22;49000;50.698;13.322;2023-03-23T16:01:29;12.80;15.60
62904;DHT22;49000;50.698;13.322;2023-03-23T16:04:05;12.70;16.40
62904;DHT22;49000;50.698;13.322;2023-03-23T16:06:33;12.70;16.30
62904;DHT22;49000;50.698;13.322;2023-03-23T16:08:59;12.70;16.90
62904;DHT22;49000;50.698;13.322;2023-03-23T16:11:27;12.60;16.90
62904;DHT22;49000;50.698;13.322;2023-03-23T16:13:52;12.60;17.50
62904;DHT22;49000;50.698;13.322;2023-03-23T16:16:22;12.60;17.20
62904;DHT22;49000;50.698;13.322;2023-03-23T16:18:48;12.50;17.30
62904;DHT22;49000;50.698;13.322;2023-03-23T16:21:13;12.50;17.80
62904;DHT22;49000;50.698;13.322;2023-03-23T16:23:39;12.50;17.70
62904;DHT22;49000;50.698;13.322;2023-03-23T16:26:06;12.40;18.20
62904;DHT22;49000;50.698;13.322;2023-03-23T16:28:31;12.40;18.30
62904;DHT22;49000;50.698;13.322;2023-03-23T16:30:57;12.40;18.70
62904;DHT22;49000;50.698;13.322;2023-03-23T16:33:22;12.40;19.00
62904;DHT22;49000;50.698;13.322;2023-03-23T16:35:48;12.40;18.70
62904;DHT22;49000;50.698;13.322;2023-03-23T16:38:15;12.30;18.80
62904;DHT22;49000;50.698;13.322;2023-03-23T16:40:42;12.30;19.50
62904;DHT22;49000;50.698;13.322;2023-03-23T16:43:08;12.30;19.50
62904;DHT22;49000;50.698;13.322;2023-03-23T16:45:34;12.30;20.00
62904;DHT22;49000;50.698;13.322;2023-03-23T16:48:00;12.30;20.50
62904;DHT22;49000;50.698;13.322;2023-03-23T16:50:27;12.20;21.30
62904;DHT22;49000;50.698;13.322;2023-03-23T16:52:53;12.20;21.30